Time;durP1;ratioP1;P1;durP2;ratioP2;P2;SDS_P1;SDS_P2;PMS_P1;PMS_P2;Temp;Humidity;BMP_temperature;BMP_pressure;BME280_temperature;BME280_humidity;BME280_pressure;Samples;Min_cycle;Max_cycle;Signal;HPM_P1;HPM_P2
2023/06/25 00:00:57;;;;;;;5.65;3.10;;;20.40;99.90;;;;;;4974306;28;20041;-53
2023/06/25 00:03:23;;;;;;;6.10;3.10;;;20.20;99.90;;;;;;4974619;28;20040;-52
2023/06/25 00:05:49;;;;;;;6.60;3.10;;;20.20;99.90;;;;;;4993573;28;20106;-51
2023/06/25 00:08:16;;;;;;;4.55;2.88;;;20.20;99.90;;;;;;4990848;28;20518;-49
2023/06/25 00:10:42;;;;;;;11.70;3.17;;;20.00;99.90;;;;;;4993107;28;20097;-50
2023/06/25 00:13:08;;;;;;;5.95;3.05;;;20.10;99.90;;;;;;4991459;28;20061;-49
2023/06/25 00:15:34;;;;;;;6.95;3.05;;;20.20;99.90;;;;;;4993557;28;20430;-53
2023/06/25 00:18:00;;;;;;;5.53;3.28;;;20.20;99.90;;;;;;4974527;28;20038;-50
2023/06/25 00:20:26;;;;;;;7.53;3.40;;;20.20;99.90;;;;;;4993023;28;20081;-52
2023/06/25 00:22:52;;;;;;;8.02;3.47;;;20.20;99.90;;;;;;4990535;28;20509;-51
2023/06/25 00:25:18;;;;;;;8.77;3.33;;;20.30;99.90;;;;;;4993150;28;20030;-50
2023/06/25 00:27:47;;;;;;;10.52;3.47;;;20.40;99.90;;;;;;4991320;28;20038;-53
2023/06/25 00:30:15;;;;;;;4.18;2.33;;;20.40;99.90;;;;;;4992734;28;20058;-49
2023/06/25 00:32:42;;;;;;;7.15;2.67;;;20.50;99.90;;;;;;4991342;28;20037;-49
2023/06/25 00:35:09;;;;;;;5.93;2.85;;;20.40;99.90;;;;;;4975798;28;20508;-49
2023/06/25 00:37:36;;;;;;;6.93;3.03;;;20.30;99.90;;;;;;4991484;28;20038;-53
2023/06/25 00:40:05;;;;;;;7.68;2.88;;;20.10;99.90;;;;;;4992604;28;20030;-53
2023/06/25 00:42:43;;;;;;;5.00;2.70;;;20.10;99.90;;;;;;4991579;28;20401;-51
2023/06/25 00:45:11;;;;;;;6.43;3.05;;;20.10;99.90;;;;;;4993104;28;20531;-50
2023/06/25 00:47:39;;;;;;;5.78;2.92;;;20.10;99.90;;;;;;4990977;28;20504;-51
2023/06/25 00:50:05;;;;;;;5.13;3.08;;;20.10;99.90;;;;;;4992258;28;20105;-53
2023/06/25 00:52:31;;;;;;;5.72;2.90;;;20.00;99.90;;;;;;4991481;28;20077;-50
2023/06/25 00:54:57;;;;;;;6.75;2.83;;;19.90;99.90;;;;;;4992751;28;20034;-47
2023/06/25 00:57:27;;;;;;;4.82;2.40;;;20.00;99.90;;;;;;4991364;28;20038;-48
2023/06/25 00:59:55;;;;;;;4.63;2.53;;;19.90;99.90;;;;;;4992432;28;20417;-52
2023/06/25 01:02:38;;;;;;;5.20;2.95;;;20.10;99.90;;;;;;4989557;28;20063;-50
2023/06/25 01:05:11;;;;;;;5.38;2.47;;;20.10;99.90;;;;;;4956581;28;20041;-52
2023/06/25 01:07:43;;;;;;;5.05;2.70;;;20.10;99.90;;;;;;4986318;28;20443;-50
2023/06/25 01:10:11;;;;;;;4.85;2.70;;;20.20;99.90;;;;;;4974888;28;20036;-53
2023/06/25 01:12:38;;;;;;;5.35;2.90;;;20.30;99.90;;;;;;4983842;28;20427;-54
2023/06/25 01:15:04;;;;;;;5.22;2.33;;;20.40;99.90;;;;;;4992239;28;20014;-54
2023/06/25 01:17:30;;;;;;;5.18;2.38;;;20.40;99.90;;;;;;4990336;28;20026;-50
2023/06/25 01:19:57;;;;;;;6.47;2.70;;;20.50;99.90;;;;;;4991874;28;20030;-50
2023/06/25 01:22:30;;;;;;;4.97;2.33;;;20.60;99.90;;;;;;4990774;28;20105;-54
2023/06/25 01:24:57;;;;;;;6.28;2.92;;;20.50;99.90;;;;;;4991993;28;20037;-47
2023/06/25 01:27:23;;;;;;;5.45;2.72;;;20.60;99.90;;;;;;4989294;28;20415;-50
2023/06/25 01:29:49;;;;;;;6.55;3.08;;;20.60;99.90;;;;;;4991574;28;20518;-51
2023/06/25 01:32:17;;;;;;;4.43;2.40;;;20.70;99.90;;;;;;4990643;28;20030;-49
2023/06/25 01:34:44;;;;;;;4.80;2.40;;;20.60;99.90;;;;;;4974840;28;20034;-48
2023/06/25 01:37:11;;;;;;;4.95;2.65;;;20.60;99.90;;;;;;4989509;28;20061;-51
2023/06/25 01:39:37;;;;;;;8.07;3.33;;;20.70;99.90;;;;;;4974450;28;20089;-46
2023/06/25 01:42:04;;;;;;;5.78;2.60;;;20.70;99.90;;;;;;4989070;28;20026;-49
2023/06/25 01:44:32;;;;;;;9.93;3.15;;;20.70;99.90;;;;;;4974618;28;20038;-51
2023/06/25 01:46:58;;;;;;;7.15;2.78;;;20.70;99.90;;;;;;4990500;28;20053;-47
2023/06/25 01:49:26;;;;;;;4.05;2.13;;;20.70;99.90;;;;;;4991465;28;20129;-49
2023/06/25 01:51:52;;;;;;;4.90;2.83;;;20.70;99.90;;;;;;4990264;28;20037;-52
2023/06/25 01:54:17;;;;;;;5.40;2.50;;;20.70;99.90;;;;;;4974406;28;20030;-49
2023/06/25 01:56:43;;;;;;;5.18;2.38;;;20.60;99.90;;;;;;4990006;28;20085;-50
2023/06/25 01:59:10;;;;;;;5.78;2.28;;;20.70;99.90;;;;;;4991841;28;20045;-53
2023/06/25 02:01:36;;;;;;;7.68;2.90;;;20.70;99.90;;;;;;4989000;28;20486;-51
2023/06/25 02:04:02;;;;;;;6.50;2.42;;;20.70;99.90;;;;;;4991331;28;20088;-50
2023/06/25 02:06:27;;;;;;;4.25;2.72;;;20.70;99.90;;;;;;4990124;28;20038;-48
2023/06/25 02:08:53;;;;;;;4.82;2.25;;;20.70;99.90;;;;;;4991376;28;20038;-52
2023/06/25 02:11:19;;;;;;;4.75;2.65;;;20.50;99.90;;;;;;4988349;28;20037;-53
2023/06/25 02:13:45;;;;;;;3.88;2.35;;;20.50;99.90;;;;;;4991196;28;20065;-52
2023/06/25 02:16:10;;;;;;;10.05;2.35;;;20.50;99.90;;;;;;4990024;28;20068;-48
2023/06/25 02:18:37;;;;;;;6.22;2.95;;;20.50;99.90;;;;;;4991343;28;20027;-50
2023/06/25 02:21:03;;;;;;;6.13;2.78;;;20.40;99.90;;;;;;4990597;28;20032;-52
2023/06/25 02:23:29;;;;;;;4.50;2.90;;;20.40;99.90;;;;;;4988799;28;20059;-49
2023/06/25 02:25:55;;;;;;;5.25;2.55;;;20.50;99.90;;;;;;4991518;28;20034;-48
2023/06/25 02:28:21;;;;;;;4.15;2.58;;;20.40;99.90;;;;;;4988683;28;20097;-51
2023/06/25 02:30:46;;;;;;;5.32;2.38;;;20.20;99.90;;;;;;4990946;28;20031;-53
2023/06/25 02:33:12;;;;;;;4.63;2.47;;;20.10;99.90;;;;;;4988430;28;20097;-50
2023/06/25 02:35:40;;;;;;;4.82;2.92;;;19.80;99.90;;;;;;4991381;28;20038;-49
2023/06/25 02:38:06;;;;;;;5.20;2.78;;;19.70;99.90;;;;;;4989810;28;20153;-48
2023/06/25 02:40:31;;;;;;;4.63;2.35;;;19.80;99.90;;;;;;4989705;28;20491;-50
2023/06/25 02:42:57;;;;;;;4.32;2.35;;;19.80;99.90;;;;;;4990436;28;20062;-50
2023/06/25 02:45:23;;;;;;;6.93;2.70;;;19.80;99.90;;;;;;4991188;28;20398;-46
2023/06/25 02:47:49;;;;;;;3.30;1.98;;;19.80;99.90;;;;;;4989743;28;20503;-51
2023/06/25 02:50:16;;;;;;;7.20;3.00;;;19.80;99.90;;;;;;4973345;28;20109;-52
2023/06/25 02:52:42;;;;;;;4.22;2.20;;;19.80;99.90;;;;;;4972200;28;20486;-47
2023/06/25 02:55:08;;;;;;;4.70;2.70;;;19.70;99.90;;;;;;4989966;28;20030;-47
2023/06/25 02:57:34;;;;;;;4.00;2.03;;;19.80;99.90;;;;;;4988378;28;20728;-53
2023/06/25 03:00:00;;;;;;;7.40;2.78;;;19.80;99.90;;;;;;4973400;28;20026;-53
2023/06/25 03:02:26;;;;;;;5.75;2.60;;;19.90;99.90;;;;;;4972274;28;20402;-51
2023/06/25 03:04:52;;;;;;;6.05;2.55;;;19.90;99.90;;;;;;4973266;28;20030;-47
2023/06/25 03:07:18;;;;;;;5.88;2.95;;;20.00;99.90;;;;;;4989419;28;20534;-51
2023/06/25 03:09:44;;;;;;;5.78;2.92;;;20.00;99.90;;;;;;4990321;28;20117;-49
2023/06/25 03:12:10;;;;;;;5.70;2.50;;;20.00;99.90;;;;;;4987934;28;20026;-49
2023/06/25 03:14:37;;;;;;;5.15;2.58;;;20.00;99.90;;;;;;4973327;28;20474;-47
2023/06/25 03:17:04;;;;;;;5.00;2.95;;;20.00;99.90;;;;;;4989834;28;20026;-47
2023/06/25 03:19:30;;;;;;;12.90;3.45;;;20.10;99.90;;;;;;5008850;23;20050;-52
2023/06/25 03:21:56;;;;;;;7.85;3.75;;;20.10;99.90;;;;;;5005166;28;20034;-46
2023/06/25 03:24:22;;;;;;;6.68;3.38;;;20.10;99.90;;;;;;4996280;28;20040;-48
2023/06/25 03:26:48;;;;;;;7.25;3.38;;;20.10;99.90;;;;;;5009476;28;20045;-46
2023/06/25 03:29:13;;;;;;;7.10;3.70;;;20.10;99.90;;;;;;5003862;28;20044;-51
2023/06/25 03:31:39;;;;;;;6.15;3.20;;;20.20;99.90;;;;;;5010059;28;20508;-50
2023/06/25 03:34:05;;;;;;;6.38;3.55;;;20.20;99.90;;;;;;5004036;28;20044;-53
2023/06/25 03:36:31;;;;;;;5.70;3.58;;;20.10;99.90;;;;;;5013661;28;20026;-45
2023/06/25 03:38:57;;;;;;;5.35;2.90;;;20.10;99.90;;;;;;5007326;28;20121;-48
2023/06/25 03:41:23;;;;;;;5.85;3.40;;;20.00;99.90;;;;;;5012215;28;20109;-46
2023/06/25 03:43:49;;;;;;;11.57;4.05;;;19.90;99.90;;;;;;5007516;28;20044;-46
2023/06/25 03:46:15;;;;;;;5.80;3.33;;;19.80;99.90;;;;;;5013681;28;20109;-51
2023/06/25 03:48:44;;;;;;;5.30;2.80;;;19.70;99.90;;;;;;5007245;28;20042;-46
2023/06/25 03:51:10;;;;;;;8.48;3.95;;;19.70;99.90;;;;;;5013323;28;20034;-47
2023/06/25 03:53:39;;;;;;;6.93;3.47;;;19.60;99.90;;;;;;5022188;28;20177;-46
2023/06/25 03:56:04;;;;;;;7.88;3.78;;;19.50;99.90;;;;;;5013221;28;20101;-48
2023/06/25 03:58:30;;;;;;;8.32;3.88;;;19.60;99.90;;;;;;5006790;28;20113;-45
2023/06/25 04:00:56;;;;;;;6.28;3.22;;;19.80;99.90;;;;;;5013100;28;20054;-48
2023/06/25 04:03:22;;;;;;;7.22;3.45;;;19.90;99.90;;;;;;5006743;28;20510;-45
2023/06/25 04:05:48;;;;;;;6.30;3.55;;;20.10;99.90;;;;;;5028560;28;20462;-48
2023/06/25 04:08:14;;;;;;;7.30;3.85;;;20.20;99.90;;;;;;5006669;28;20030;-51
2023/06/25 04:10:43;;;;;;;5.13;2.97;;;20.30;99.90;;;;;;5013101;28;20034;-51
2023/06/25 04:13:09;;;;;;;15.68;4.43;;;20.30;99.90;;;;;;5006453;28;20076;-51
2023/06/25 04:15:35;;;;;;;8.80;4.40;;;20.30;99.90;;;;;;5028260;28;20117;-52
2023/06/25 04:18:00;;;;;;;6.50;3.78;;;20.30;99.90;;;;;;5023085;28;20030;-50
2023/06/25 04:20:27;;;;;;;9.38;4.63;;;20.30;99.90;;;;;;5011805;28;20037;-50
2023/06/25 04:22:54;;;;;;;6.07;4.25;;;20.30;99.90;;;;;;5024095;28;20406;-47
2023/06/25 04:25:20;;;;;;;8.00;4.00;;;20.20;99.90;;;;;;5011104;28;20029;-50
2023/06/25 04:27:47;;;;;;;7.60;3.92;;;20.10;99.90;;;;;;5009448;28;20026;-51
2023/06/25 04:30:13;;;;;;;5.30;3.65;;;19.90;99.90;;;;;;5024914;28;20465;-51
2023/06/25 04:32:39;;;;;;;7.93;3.80;;;19.80;99.90;;;;;;5010554;28;20056;-54
2023/06/25 04:35:05;;;;;;;8.50;4.15;;;19.70;99.90;;;;;;5008999;28;20040;-54
2023/06/25 04:37:31;;;;;;;7.97;4.18;;;19.70;99.90;;;;;;5011408;28;20363;-54
2023/06/25 04:39:57;;;;;;;7.03;4.38;;;19.70;99.90;;;;;;5007177;28;20044;-54
2023/06/25 04:42:23;;;;;;;10.52;4.15;;;19.60;99.90;;;;;;5027157;28;20040;-52
2023/06/25 04:44:51;;;;;;;6.75;3.40;;;19.60;99.90;;;;;;5012142;28;20061;-50
2023/06/25 04:47:17;;;;;;;9.65;3.95;;;19.70;99.90;;;;;;5011639;28;20034;-49
2023/06/25 04:49:42;;;;;;;7.68;3.42;;;19.70;99.90;;;;;;5005929;28;20045;-52
2023/06/25 04:52:08;;;;;;;5.80;3.55;;;19.80;99.90;;;;;;5012265;28;20041;-50
2023/06/25 04:54:34;;;;;;;6.85;3.88;;;19.90;99.90;;;;;;5006132;28;20034;-51
2023/06/25 04:57:00;;;;;;;9.38;4.03;;;19.90;99.90;;;;;;5012581;28;20060;-50
2023/06/25 04:59:25;;;;;;;7.35;3.42;;;20.10;99.90;;;;;;5005884;28;20034;-52
2023/06/25 05:01:51;;;;;;;8.68;3.97;;;20.20;99.90;;;;;;5011959;28;20403;-54
2023/06/25 05:04:17;;;;;;;7.28;3.58;;;20.20;99.90;;;;;;5005837;28;20473;-53
2023/06/25 05:06:43;;;;;;;9.15;4.55;;;20.40;99.90;;;;;;5012513;28;20591;-52
2023/06/25 05:09:08;;;;;;;9.10;3.63;;;20.50;99.90;;;;;;5005319;28;20044;-54
2023/06/25 05:11:34;;;;;;;7.20;3.45;;;20.60;99.90;;;;;;5011636;28;20037;-53
2023/06/25 05:14:00;;;;;;;8.55;3.65;;;20.70;99.90;;;;;;5005280;28;20118;-52
2023/06/25 05:16:25;;;;;;;5.05;3.25;;;20.90;99.90;;;;;;5011998;28;20057;-53
2023/06/25 05:18:51;;;;;;;6.80;3.08;;;21.00;99.90;;;;;;5001118;28;20046;-54
2023/06/25 05:21:17;;;;;;;10.10;3.38;;;21.00;99.90;;;;;;5009311;28;20026;-47
2023/06/25 05:23:45;;;;;;;5.78;3.60;;;21.10;99.90;;;;;;5005939;28;20072;-46
2023/06/25 05:26:13;;;;;;;9.52;3.53;;;21.10;99.90;;;;;;5011764;28;20026;-48
2023/06/25 05:28:39;;;;;;;5.88;3.22;;;21.20;99.90;;;;;;5020424;28;20041;-46
2023/06/25 05:31:06;;;;;;;6.68;3.13;;;21.20;99.90;;;;;;5011471;28;20497;-48
2023/06/25 05:33:32;;;;;;;5.80;3.72;;;21.30;99.90;;;;;;5020598;28;20048;-46
2023/06/25 05:35:58;;;;;;;5.95;3.40;;;21.30;99.90;;;;;;5026522;28;20478;-47
2023/06/25 05:38:23;;;;;;;10.25;3.15;;;21.40;99.90;;;;;;5004952;28;20045;-46
2023/06/25 05:40:49;;;;;;;6.75;3.85;;;21.30;99.90;;;;;;5011137;28;20052;-49
2023/06/25 05:43:15;;;;;;;6.03;3.17;;;21.30;99.90;;;;;;5005467;28;20026;-50
2023/06/25 05:45:40;;;;;;;6.70;3.45;;;21.30;99.90;;;;;;5011471;28;20034;-53
2023/06/25 05:48:06;;;;;;;7.07;3.60;;;21.20;99.90;;;;;;5005269;28;20478;-50
2023/06/25 05:50:32;;;;;;;6.30;3.00;;;21.30;99.90;;;;;;5010844;28;20129;-48
2023/06/25 05:52:58;;;;;;;5.97;2.97;;;21.20;99.90;;;;;;5006810;28;20088;-49
2023/06/25 05:55:23;;;;;;;7.00;3.65;;;21.30;99.90;;;;;;5009921;28;20038;-54
2023/06/25 05:57:49;;;;;;;5.85;3.58;;;21.30;99.90;;;;;;5022874;28;20088;-51
2023/06/25 06:00:16;;;;;;;6.90;3.03;;;21.30;99.90;;;;;;5008443;28;20524;-50
2023/06/25 06:02:41;;;;;;;7.00;3.05;;;21.40;99.90;;;;;;5008784;28;20062;-53
2023/06/25 06:05:07;;;;;;;6.20;3.13;;;21.50;99.90;;;;;;5007947;28;20057;-53
2023/06/25 06:07:33;;;;;;;6.53;2.65;;;21.60;99.90;;;;;;4992253;28;20239;-47
2023/06/25 06:09:59;;;;;;;5.07;2.90;;;21.70;99.90;;;;;;5006133;28;20060;-45
2023/06/25 06:12:25;;;;;;;7.63;3.53;;;21.70;99.90;;;;;;5010699;28;20061;-48
2023/06/25 06:14:51;;;;;;;5.90;3.17;;;21.80;99.90;;;;;;5005363;28;20386;-46
2023/06/25 06:17:17;;;;;;;5.90;3.38;;;21.80;99.90;;;;;;5011044;28;20029;-45
2023/06/25 06:19:42;;;;;;;5.72;3.22;;;21.90;99.90;;;;;;5003222;28;20057;-75
2023/06/25 06:22:08;;;;;;;6.05;2.90;;;22.00;99.90;;;;;;5007264;28;20698;-73
2023/06/25 06:24:34;;;;;;;4.78;2.85;;;22.00;99.90;;;;;;5013426;28;20152;-75
2023/06/25 06:27:00;;;;;;;6.35;2.80;;;22.10;99.90;;;;;;5006052;28;20448;-74
2023/06/25 06:29:25;;;;;;;6.07;2.78;;;22.20;99.90;;;;;;5006070;28;20176;-76
2023/06/25 06:31:51;;;;;;;6.55;2.60;;;22.30;99.90;;;;;;5009003;28;20030;-71
2023/06/25 06:34:17;;;;;;;4.93;2.83;;;22.30;99.90;;;;;;5006494;28;20037;-70
2023/06/25 06:36:42;;;;;;;6.97;3.22;;;22.40;99.90;;;;;;5010541;28;20222;-70
2023/06/25 06:39:08;;;;;;;6.03;2.65;;;22.40;99.90;;;;;;5002620;28;20064;-70
2023/06/25 06:41:34;;;;;;;5.47;2.72;;;22.60;99.90;;;;;;5009966;28;20406;-69
2023/06/25 06:44:12;;;;;;;7.00;2.28;;;22.80;97.90;;;;;;5004371;28;20398;-68
2023/06/25 06:46:38;;;;;;;7.30;2.30;;;22.90;97.70;;;;;;5024451;28;20037;-69
2023/06/25 06:49:04;;;;;;;7.68;2.28;;;23.00;97.60;;;;;;5006717;28;20556;-69
2023/06/25 06:51:29;;;;;;;5.63;2.50;;;23.00;97.10;;;;;;5009839;28;20045;-67
2023/06/25 06:53:55;;;;;;;4.03;2.28;;;23.00;97.20;;;;;;5008673;28;20045;-68
2023/06/25 06:56:21;;;;;;;7.85;2.42;;;23.00;96.50;;;;;;5010616;28;20034;-68
2023/06/25 06:58:47;;;;;;;7.43;2.28;;;23.10;96.80;;;;;;5004621;28;20038;-68
2023/06/25 07:01:13;;;;;;;7.45;3.22;;;23.20;96.10;;;;;;5025382;28;20030;-68
2023/06/25 07:03:39;;;;;;;5.88;2.35;;;23.20;96.20;;;;;;5008094;28;20104;-68
2023/06/25 07:06:05;;;;;;;4.40;2.10;;;23.30;96.10;;;;;;5010163;28;20696;-69
2023/06/25 07:08:31;;;;;;;4.28;2.13;;;23.40;95.80;;;;;;5004211;28;20041;-67
2023/06/25 07:10:56;;;;;;;4.50;2.30;;;23.40;95.70;;;;;;5012885;28;20111;-72
2023/06/25 07:13:22;;;;;;;6.00;2.38;;;23.60;95.50;;;;;;5007483;28;20027;-54
2023/06/25 07:15:48;;;;;;;4.88;2.58;;;23.70;94.80;;;;;;5014344;28;20036;-52
2023/06/25 07:18:14;;;;;;;3.55;2.10;;;23.90;95.00;;;;;;5004406;28;20521;-50
2023/06/25 07:20:39;;;;;;;6.28;2.90;;;24.00;93.30;;;;;;5012691;28;20145;-52
2023/06/25 07:23:05;;;;;;;3.75;2.03;;;24.00;92.10;;;;;;5007816;28;20025;-51
2023/06/25 07:25:31;;;;;;;3.80;1.98;;;24.00;92.30;;;;;;5013592;28;20040;-45
2023/06/25 07:27:56;;;;;;;3.83;2.13;;;24.10;92.10;;;;;;5009258;28;20034;-50
2023/06/25 07:30:22;;;;;;;6.15;2.20;;;24.20;92.10;;;;;;5011763;28;20044;-52
2023/06/25 07:32:48;;;;;;;4.38;2.15;;;24.30;92.10;;;;;;5010422;28;20053;-50
2023/06/25 07:35:13;;;;;;;5.20;2.38;;;24.30;91.80;;;;;;5013145;28;20033;-54
2023/06/25 07:37:40;;;;;;;5.63;2.42;;;24.50;91.90;;;;;;5009673;28;20041;-52
2023/06/25 07:40:07;;;;;;;3.88;2.13;;;24.40;91.30;;;;;;5021503;28;20040;-49
2023/06/25 07:42:32;;;;;;;7.68;2.47;;;24.50;91.00;;;;;;5011709;28;20026;-53
2023/06/25 07:44:58;;;;;;;3.38;1.95;;;24.60;91.20;;;;;;5012963;28;20116;-51
2023/06/25 07:47:25;;;;;;;4.28;2.00;;;24.70;91.50;;;;;;4986602;28;20050;-52
2023/06/25 07:49:51;;;;;;;4.50;2.70;;;24.80;91.30;;;;;;5022595;28;20486;-53
2023/06/25 07:52:17;;;;;;;5.53;2.10;;;24.90;91.10;;;;;;5013857;28;20026;-48
2023/06/25 07:54:43;;;;;;;3.75;1.95;;;24.90;90.60;;;;;;5019678;28;20057;-52
2023/06/25 07:57:09;;;;;;;3.75;1.70;;;24.90;90.20;;;;;;5012342;28;20418;-52
2023/06/25 07:59:35;;;;;;;4.68;2.33;;;25.00;90.00;;;;;;5021711;28;20468;-47
2023/06/25 08:02:01;;;;;;;5.70;2.70;;;25.00;89.60;;;;;;5013296;28;20038;-46
2023/06/25 08:04:26;;;;;;;6.55;2.47;;;25.00;89.20;;;;;;5006824;28;20030;-72
2023/06/25 08:06:52;;;;;;;5.25;2.38;;;25.30;88.60;;;;;;5013168;28;20038;-72
2023/06/25 08:09:18;;;;;;;3.92;2.17;;;25.30;87.90;;;;;;5007332;28;20033;-72
2023/06/25 08:11:43;;;;;;;4.70;1.92;;;25.40;88.10;;;;;;5013024;28;20362;-70
2023/06/25 08:14:09;;;;;;;4.75;2.05;;;25.40;87.40;;;;;;5006632;28;20057;-71
2023/06/25 08:16:35;;;;;;;5.95;1.95;;;25.50;87.10;;;;;;5013098;28;20035;-71
2023/06/25 08:19:00;;;;;;;6.20;2.92;;;25.60;87.30;;;;;;5006667;28;20494;-71
2023/06/25 08:21:26;;;;;;;6.03;2.70;;;25.70;86.70;;;;;;5011414;28;20038;-71
2023/06/25 08:23:52;;;;;;;4.28;2.08;;;25.80;87.20;;;;;;5006878;28;20038;-71
2023/06/25 08:26:18;;;;;;;6.65;1.80;;;25.90;85.10;;;;;;5012733;28;20421;-71
2023/06/25 08:28:44;;;;;;;3.97;1.90;;;25.80;84.00;;;;;;5006223;28;20065;-70
2023/06/25 08:31:10;;;;;;;5.10;2.25;;;25.70;83.10;;;;;;5011072;28;20042;-70
2023/06/25 08:33:38;;;;;;;3.80;2.03;;;25.70;82.80;;;;;;5021981;28;20117;-71
2023/06/25 08:36:05;;;;;;;4.45;1.58;;;25.80;83.10;;;;;;5027485;28;20034;-70
2023/06/25 08:38:32;;;;;;;6.45;2.63;;;26.00;81.90;;;;;;5005908;28;20030;-70
2023/06/25 08:40:59;;;;;;;4.45;1.85;;;26.10;81.20;;;;;;5011883;28;20056;-71
2023/06/25 08:43:25;;;;;;;6.05;2.20;;;26.20;80.30;;;;;;5006438;28;20026;-71
2023/06/25 08:45:50;;;;;;;5.05;2.50;;;26.40;80.00;;;;;;5012390;28;20116;-71
2023/06/25 08:48:17;;;;;;;4.68;2.03;;;26.40;78.20;;;;;;5006370;28;20114;-70
2023/06/25 08:50:53;;;;;;;4.80;2.17;;;26.40;78.10;;;;;;5010792;28;20037;-71
2023/06/25 08:53:19;;;;;;;6.30;2.20;;;26.60;79.20;;;;;;5020711;28;20065;-71
2023/06/25 08:55:47;;;;;;;5.03;2.13;;;26.60;78.90;;;;;;5027509;28;20050;-71
2023/06/25 08:58:13;;;;;;;6.05;2.30;;;26.70;79.40;;;;;;5021240;28;20033;-71
2023/06/25 09:00:39;;;;;;;6.53;2.20;;;26.90;78.00;;;;;;5027175;28;20033;-71
2023/06/25 09:03:06;;;;;;;5.00;2.55;;;27.00;75.50;;;;;;5006224;28;20093;-71
2023/06/25 09:05:33;;;;;;;4.75;2.03;;;27.00;76.20;;;;;;5011841;28;20068;-71
2023/06/25 09:07:59;;;;;;;8.13;2.33;;;27.10;75.80;;;;;;5007227;28;20037;-71
2023/06/25 09:10:26;;;;;;;9.68;2.00;;;27.20;75.50;;;;;;5010632;28;20030;-71
2023/06/25 09:12:52;;;;;;;4.57;2.15;;;27.20;75.20;;;;;;5022969;28;20042;-70
2023/06/25 09:15:23;;;;;;;4.30;2.33;;;27.20;74.40;;;;;;5009991;28;20026;-70
2023/06/25 09:17:57;;;;;;;3.67;2.03;;;27.20;75.50;;;;;;5038913;23;20026;-73
2023/06/25 09:20:24;;;;;;;5.15;2.28;;;27.30;73.80;;;;;;4985773;28;20399;-71
2023/06/25 09:22:56;;;;;;;3.88;1.88;;;27.30;73.20;;;;;;4980791;28;20023;-72
2023/06/25 09:25:29;;;;;;;5.47;2.10;;;27.50;73.20;;;;;;4991941;28;20040;-72
2023/06/25 09:27:57;;;;;;;4.60;1.98;;;27.60;72.50;;;;;;4991556;28;20097;-73
2023/06/25 09:30:23;;;;;;;3.58;1.92;;;27.80;72.20;;;;;;4987655;28;20486;-74
2023/06/25 09:32:50;;;;;;;3.40;1.67;;;27.80;71.30;;;;;;4990806;28;20038;-73
2023/06/25 09:35:30;;;;;;;4.85;2.10;;;27.80;70.20;;;;;;4991139;28;20057;-73
2023/06/25 09:37:56;;;;;;;;;;;27.80;71.10;;;;;;4992003;28;20031;-72
2023/06/25 09:40:22;;;;;;;4.45;2.22;;;27.90;70.80;;;;;;5005499;28;20293;-73
2023/06/25 09:42:52;;;;;;;7.55;2.35;;;28.20;70.90;;;;;;4991500;28;20066;-73
2023/06/25 09:45:22;;;;;;;4.93;2.00;;;28.30;69.70;;;;;;4990759;28;20030;-72
2023/06/25 09:47:49;;;;;;;4.37;2.10;;;28.30;69.80;;;;;;4990284;28;20536;-74
2023/06/25 09:50:38;;;;;;;7.05;2.13;;;28.20;68.60;;;;;;4991263;28;20046;-72
2023/06/25 09:53:09;;;;;;;4.68;2.22;;;28.20;68.30;;;;;;4980558;28;20022;-72
2023/06/25 09:55:37;;;;;;;3.83;2.05;;;28.10;68.40;;;;;;4983943;28;20038;-73
2023/06/25 09:58:04;;;;;;;3.85;1.80;;;28.10;68.20;;;;;;4991356;28;20041;-72
2023/06/25 10:00:32;;;;;;;5.05;2.15;;;28.30;68.70;;;;;;4989859;28;20089;-72
2023/06/25 10:02:58;;;;;;;5.60;2.00;;;28.20;68.70;;;;;;4990008;28;20093;-72
2023/06/25 10:05:24;;;;;;;4.13;1.77;;;28.40;68.20;;;;;;4991319;28;20092;-72
2023/06/25 10:07:51;;;;;;;3.40;1.60;;;28.60;69.10;;;;;;4991026;28;20105;-72
2023/06/25 10:10:27;;;;;;;5.53;2.40;;;28.90;69.00;;;;;;4990001;28;20030;-72
2023/06/25 10:12:53;;;;;;;5.10;2.20;;;29.30;68.50;;;;;;4991516;28;20091;-73
2023/06/25 10:15:35;;;;;;;3.50;1.63;;;29.60;68.10;;;;;;4991512;28;20553;-74
2023/06/25 10:18:06;;;;;;;4.45;1.65;;;29.80;66.30;;;;;;4989604;28;20037;-72
2023/06/25 10:20:35;;;;;;;4.05;1.98;;;29.80;66.10;;;;;;4990991;28;20113;-73
2023/06/25 10:23:08;;;;;;;3.70;1.80;;;30.00;66.00;;;;;;4989616;28;20038;-72
2023/06/25 10:25:37;;;;;;;6.43;2.25;;;29.70;66.40;;;;;;4990341;28;20034;-73
2023/06/25 10:28:10;;;;;;;4.32;1.70;;;30.00;65.30;;;;;;4990923;28;20060;-73
2023/06/25 10:30:49;;;;;;;3.47;1.50;;;29.80;65.00;;;;;;4983158;28;20026;-73
2023/06/25 10:33:17;;;;;;;3.95;2.13;;;29.70;65.60;;;;;;4990000;28;20090;-73
2023/06/25 10:35:49;;;;;;;3.28;1.70;;;29.90;66.30;;;;;;4991447;28;20031;-74
2023/06/25 10:38:18;;;;;;;3.28;1.75;;;30.30;64.40;;;;;;4970780;28;20081;-73
2023/06/25 10:40:45;;;;;;;5.22;1.85;;;30.40;63.90;;;;;;4990113;28;20528;-73
2023/06/25 10:43:18;;;;;;;4.18;1.67;;;30.80;64.20;;;;;;4992745;28;20488;-72
2023/06/25 10:45:57;;;;;;;3.95;1.52;;;30.90;63.30;;;;;;4996698;28;20513;-77
2023/06/25 10:48:24;;;;;;;4.10;1.60;;;31.00;62.50;;;;;;4993900;28;20034;-71
2023/06/25 10:50:51;;;;;;;2.28;1.40;;;31.20;62.10;;;;;;4994283;28;20038;-72
2023/06/25 10:53:23;;;;;;;7.10;1.60;;;30.70;61.20;;;;;;4994609;28;20019;-72
2023/06/25 10:55:51;;;;;;;5.43;1.63;;;30.80;61.30;;;;;;4993700;28;20494;-73
2023/06/25 10:58:20;;;;;;;2.78;1.50;;;31.10;60.40;;;;;;4990338;28;20035;-73
2023/06/25 11:00:53;;;;;;;3.33;1.80;;;30.90;59.40;;;;;;4994690;28;20486;-72
2023/06/25 11:03:19;;;;;;;3.20;1.60;;;30.40;60.30;;;;;;4993248;28;20030;-72
2023/06/25 11:05:46;;;;;;;2.85;1.42;;;30.20;59.40;;;;;;4994636;28;20037;-72
2023/06/25 11:08:13;;;;;;;5.50;2.25;;;30.40;59.70;;;;;;4994314;28;20505;-72
2023/06/25 11:10:40;;;;;;;6.15;2.33;;;30.80;59.90;;;;;;4994426;28;20042;-73
2023/06/25 11:13:11;;;;;;;3.72;1.58;;;31.20;59.90;;;;;;4994283;28;20030;-71
2023/06/25 11:15:40;;;;;;;4.90;1.70;;;31.00;58.90;;;;;;5009526;28;20026;-72
2023/06/25 11:18:08;;;;;;;4.15;1.77;;;31.30;58.50;;;;;;4993951;28;20030;-72
2023/06/25 11:20:33;;;;;;;2.55;1.30;;;31.40;58.60;;;;;;4998374;28;20113;-70
2023/06/25 11:23:01;;;;;;;3.40;1.50;;;31.20;57.60;;;;;;4992901;28;20212;-74
2023/06/25 11:25:28;;;;;;;4.18;1.75;;;31.30;57.30;;;;;;4993046;28;20040;-69
2023/06/25 11:28:14;;;;;;;4.53;1.70;;;31.30;57.80;;;;;;4993933;28;20478;-68
2023/06/25 11:30:42;;;;;;;3.60;1.65;;;31.40;57.70;;;;;;4993777;28;20578;-69
2023/06/25 11:33:17;;;;;;;3.63;1.42;;;31.60;57.00;;;;;;4992753;28;20042;-69
2023/06/25 11:35:50;;;;;;;3.55;1.58;;;31.70;57.20;;;;;;4992952;28;20037;-70
2023/06/25 11:38:29;;;;;;;3.22;1.50;;;31.50;57.70;;;;;;4992043;28;20421;-70
2023/06/25 11:40:58;;;;;;;2.20;1.17;;;31.50;56.80;;;;;;4993659;28;20486;-68
2023/06/25 11:43:25;;;;;;;2.90;1.42;;;31.50;56.50;;;;;;4989394;28;20038;-69
2023/06/25 11:45:51;;;;;;;3.08;1.50;;;31.60;57.50;;;;;;4994090;28;20184;-69
2023/06/25 11:48:18;;;;;;;5.10;1.95;;;31.60;56.70;;;;;;4993419;28;20026;-71
2023/06/25 11:50:46;;;;;;;2.42;1.35;;;31.50;56.60;;;;;;4993614;28;20066;-68
2023/06/25 11:53:12;;;;;;;2.92;1.35;;;31.30;56.30;;;;;;4993543;28;20031;-70
2023/06/25 11:55:39;;;;;;;3.38;1.45;;;31.40;56.10;;;;;;4993885;28;20557;-70
2023/06/25 11:58:05;;;;;;;2.85;1.67;;;31.50;56.50;;;;;;4993390;28;20034;-69
2023/06/25 12:00:30;;;;;;;3.92;1.48;;;31.50;56.30;;;;;;4992394;28;20034;-70
2023/06/25 12:02:56;;;;;;;3.63;1.73;;;31.60;56.10;;;;;;4993429;28;20034;-70
2023/06/25 12:05:22;;;;;;;3.40;1.52;;;31.70;57.20;;;;;;4992102;28;20069;-69
2023/06/25 12:07:48;;;;;;;4.05;1.85;;;31.90;55.80;;;;;;4993126;28;20430;-69
2023/06/25 12:10:13;;;;;;;5.03;1.92;;;32.20;56.50;;;;;;4992912;28;20041;-69
2023/06/25 12:12:39;;;;;;;2.85;1.60;;;32.10;54.70;;;;;;4993370;28;20030;-69
2023/06/25 12:15:06;;;;;;;4.60;2.08;;;31.90;55.10;;;;;;4988633;28;20503;-69
2023/06/25 12:17:31;;;;;;;3.30;1.48;;;31.80;55.50;;;;;;4993418;28;20471;-69
2023/06/25 12:19:57;;;;;;;3.78;1.60;;;32.00;55.40;;;;;;4992443;28;20045;-69
2023/06/25 12:22:23;;;;;;;5.93;1.42;;;32.00;55.30;;;;;;4993078;28;20046;-70
2023/06/25 12:24:48;;;;;;;2.65;1.20;;;32.20;55.20;;;;;;4992919;28;20042;-70
2023/06/25 12:27:14;;;;;;;6.00;1.73;;;32.10;54.70;;;;;;4993167;28;20105;-70
2023/06/25 12:29:40;;;;;;;3.40;1.60;;;32.80;54.50;;;;;;4991126;28;20061;-69
2023/06/25 12:32:06;;;;;;;3.35;1.45;;;33.00;53.80;;;;;;4993000;28;20034;-70
2023/06/25 12:34:32;;;;;;;2.92;1.50;;;33.20;53.90;;;;;;4992593;28;20027;-70
2023/06/25 12:36:58;;;;;;;2.90;1.10;;;33.70;52.60;;;;;;4991658;28;20034;-70
2023/06/25 12:39:23;;;;;;;2.83;1.58;;;33.60;54.00;;;;;;4994286;28;20117;-70
2023/06/25 12:41:49;;;;;;;2.40;1.23;;;34.10;52.40;;;;;;5004416;28;20068;-70
2023/06/25 12:44:15;;;;;;;5.95;1.30;;;34.10;52.40;;;;;;4996898;28;20156;-70
2023/06/25 12:46:40;;;;;;;2.58;1.58;;;34.20;52.10;;;;;;4991660;28;20522;-69